sensor_id;sensor_type;location;lat;lon;timestamp;P1;durP1;ratioP1;P2;durP2;ratioP2
15693;SDS011;7947;48.834;9.132;2023-07-09T00:00:55;4.60;;;2.20;;
15693;SDS011;7947;48.834;9.132;2023-07-09T00:03:58;3.08;;;2.13;;
15693;SDS011;7947;48.834;9.132;2023-07-09T00:07:02;3.15;;;1.73;;
15693;SDS011;7947;48.834;9.132;2023-07-09T00:10:15;4.05;;;2.75;;
15693;SDS011;7947;48.834;9.132;2023-07-09T00:13:19;3.42;;;1.65;;
15693;SDS011;7947;48.834;9.132;2023-07-09T00:16:24;4.82;;;2.15;;
15693;SDS011;7947;48.834;9.132;2023-07-09T00:19:28;2.85;;;2.33;;
15693;SDS011;7947;48.834;9.132;2023-07-09T00:22:31;6.95;;;2.35;;
15693;SDS011;7947;48.834;9.132;2023-07-09T00:25:34;8.38;;;3.08;;
15693;SDS011;7947;48.834;9.132;2023-07-09T00:28:37;5.10;;;3.35;;
15693;SDS011;7947;48.834;9.132;2023-07-09T00:31:41;10.95;;;6.03;;
15693;SDS011;7947;48.834;9.132;2023-07-09T00:34:45;13.02;;;7.57;;
15693;SDS011;7947;48.834;9.132;2023-07-09T00:37:49;16.13;;;7.30;;
15693;SDS011;7947;48.834;9.132;2023-07-09T00:41:00;23.95;;;11.98;;
15693;SDS011;7947;48.834;9.132;2023-07-09T00:44:20;34.45;;;15.85;;
15693;SDS011;7947;48.834;9.132;2023-07-09T00:47:44;22.13;;;11.60;;
15693;SDS011;7947;48.834;9.132;2023-07-09T00:50:52;16.45;;;9.48;;
15693;SDS011;7947;48.834;9.132;2023-07-09T00:53:59;16.85;;;7.93;;
15693;SDS011;7947;48.834;9.132;2023-07-09T00:57:11;10.07;;;5.70;;
15693;SDS011;7947;48.834;9.132;2023-07-09T01:00:18;10.10;;;5.05;;
15693;SDS011;7947;48.834;9.132;2023-07-09T01:03:25;8.13;;;4.78;;
15693;SDS011;7947;48.834;9.132;2023-07-09T01:06:31;7.32;;;4.25;;
15693;SDS011;7947;48.834;9.132;2023-07-09T01:09:36;8.57;;;3.95;;
15693;SDS011;7947;48.834;9.132;2023-07-09T01:12:43;7.75;;;3.97;;
15693;SDS011;7947;48.834;9.132;2023-07-09T01:15:48;5.35;;;3.38;;
15693;SDS011;7947;48.834;9.132;2023-07-09T01:18:53;5.18;;;3.08;;
15693;SDS011;7947;48.834;9.132;2023-07-09T01:21:58;5.50;;;3.13;;
15693;SDS011;7947;48.834;9.132;2023-07-09T01:25:03;4.45;;;2.67;;
15693;SDS011;7947;48.834;9.132;2023-07-09T01:28:08;5.40;;;2.85;;
15693;SDS011;7947;48.834;9.132;2023-07-09T01:31:12;3.60;;;2.50;;
15693;SDS011;7947;48.834;9.132;2023-07-09T01:34:16;3.55;;;2.47;;
15693;SDS011;7947;48.834;9.132;2023-07-09T01:37:21;4.00;;;2.55;;
15693;SDS011;7947;48.834;9.132;2023-07-09T01:40:26;3.35;;;2.60;;
15693;SDS011;7947;48.834;9.132;2023-07-09T01:43:33;4.20;;;2.70;;
15693;SDS011;7947;48.834;9.132;2023-07-09T01:46:38;2.90;;;2.25;;
15693;SDS011;7947;48.834;9.132;2023-07-09T01:49:40;3.38;;;2.55;;
15693;SDS011;7947;48.834;9.132;2023-07-09T01:52:49;4.07;;;3.00;;
15693;SDS011;7947;48.834;9.132;2023-07-09T01:55:52;5.55;;;3.30;;
15693;SDS011;7947;48.834;9.132;2023-07-09T01:58:56;4.50;;;2.75;;
15693;SDS011;7947;48.834;9.132;2023-07-09T02:02:02;5.28;;;3.22;;
15693;SDS011;7947;48.834;9.132;2023-07-09T02:05:06;4.88;;;3.05;;
15693;SDS011;7947;48.834;9.132;2023-07-09T02:08:10;4.70;;;2.97;;
15693;SDS011;7947;48.834;9.132;2023-07-09T02:11:13;3.90;;;2.55;;
15693;SDS011;7947;48.834;9.132;2023-07-09T02:14:16;4.07;;;2.70;;
15693;SDS011;7947;48.834;9.132;2023-07-09T02:17:20;4.82;;;2.72;;
15693;SDS011;7947;48.834;9.132;2023-07-09T02:20:23;4.85;;;2.63;;
15693;SDS011;7947;48.834;9.132;2023-07-09T02:23:28;2.80;;;2.15;;
15693;SDS011;7947;48.834;9.132;2023-07-09T02:26:31;5.00;;;3.13;;
15693;SDS011;7947;48.834;9.132;2023-07-09T02:29:34;4.07;;;2.50;;
15693;SDS011;7947;48.834;9.132;2023-07-09T02:32:37;3.80;;;2.40;;
15693;SDS011;7947;48.834;9.132;2023-07-09T02:35:41;4.03;;;2.50;;
15693;SDS011;7947;48.834;9.132;2023-07-09T02:38:45;4.43;;;2.90;;
15693;SDS011;7947;48.834;9.132;2023-07-09T02:41:48;4.00;;;2.70;;
15693;SDS011;7947;48.834;9.132;2023-07-09T02:44:51;3.00;;;2.55;;
15693;SDS011;7947;48.834;9.132;2023-07-09T02:47:54;3.83;;;2.42;;
15693;SDS011;7947;48.834;9.132;2023-07-09T02:50:57;4.47;;;2.95;;
15693;SDS011;7947;48.834;9.132;2023-07-09T02:54:01;3.85;;;2.35;;
15693;SDS011;7947;48.834;9.132;2023-07-09T02:57:06;3.85;;;3.00;;
15693;SDS011;7947;48.834;9.132;2023-07-09T03:00:10;4.50;;;2.63;;
15693;SDS011;7947;48.834;9.132;2023-07-09T03:03:13;3.45;;;2.55;;
15693;SDS011;7947;48.834;9.132;2023-07-09T03:06:16;4.22;;;2.95;;
15693;SDS011;7947;48.834;9.132;2023-07-09T03:09:21;2.75;;;2.45;;
15693;SDS011;7947;48.834;9.132;2023-07-09T03:12:23;3.80;;;2.63;;
15693;SDS011;7947;48.834;9.132;2023-07-09T03:15:26;3.47;;;2.70;;
15693;SDS011;7947;48.834;9.132;2023-07-09T03:18:29;3.65;;;2.75;;
15693;SDS011;7947;48.834;9.132;2023-07-09T03:21:32;3.28;;;2.80;;
15693;SDS011;7947;48.834;9.132;2023-07-09T03:24:37;4.93;;;2.70;;
15693;SDS011;7947;48.834;9.132;2023-07-09T03:27:40;2.85;;;2.40;;
15693;SDS011;7947;48.834;9.132;2023-07-09T03:30:43;3.55;;;2.65;;
15693;SDS011;7947;48.834;9.132;2023-07-09T03:33:47;4.32;;;2.70;;
15693;SDS011;7947;48.834;9.132;2023-07-09T03:36:51;3.83;;;2.97;;
15693;SDS011;7947;48.834;9.132;2023-07-09T03:39:55;3.67;;;2.60;;
15693;SDS011;7947;48.834;9.132;2023-07-09T03:42:58;5.72;;;2.55;;
15693;SDS011;7947;48.834;9.132;2023-07-09T03:46:00;3.47;;;2.47;;
15693;SDS011;7947;48.834;9.132;2023-07-09T03:49:04;2.60;;;2.38;;
15693;SDS011;7947;48.834;9.132;2023-07-09T03:52:07;4.13;;;2.67;;
15693;SDS011;7947;48.834;9.132;2023-07-09T03:55:11;3.63;;;2.58;;
15693;SDS011;7947;48.834;9.132;2023-07-09T03:58:15;5.03;;;3.05;;
15693;SDS011;7947;48.834;9.132;2023-07-09T04:01:18;5.72;;;2.80;;
15693;SDS011;7947;48.834;9.132;2023-07-09T04:04:21;3.60;;;2.35;;
15693;SDS011;7947;48.834;9.132;2023-07-09T04:07:24;3.38;;;2.67;;
15693;SDS011;7947;48.834;9.132;2023-07-09T04:10:28;3.20;;;2.88;;
15693;SDS011;7947;48.834;9.132;2023-07-09T04:13:31;3.47;;;2.42;;
15693;SDS011;7947;48.834;9.132;2023-07-09T04:16:34;5.20;;;2.40;;
15693;SDS011;7947;48.834;9.132;2023-07-09T04:19:37;4.00;;;2.70;;
15693;SDS011;7947;48.834;9.132;2023-07-09T04:22:41;3.63;;;2.55;;
15693;SDS011;7947;48.834;9.132;2023-07-09T04:25:45;2.97;;;2.28;;
15693;SDS011;7947;48.834;9.132;2023-07-09T04:28:48;3.45;;;2.63;;
15693;SDS011;7947;48.834;9.132;2023-07-09T04:31:51;3.97;;;2.45;;
15693;SDS011;7947;48.834;9.132;2023-07-09T04:34:54;3.83;;;2.60;;
15693;SDS011;7947;48.834;9.132;2023-07-09T04:37:57;2.88;;;2.38;;
15693;SDS011;7947;48.834;9.132;2023-07-09T04:41:01;2.95;;;2.55;;
15693;SDS011;7947;48.834;9.132;2023-07-09T04:44:04;4.13;;;2.22;;
15693;SDS011;7947;48.834;9.132;2023-07-09T04:47:07;3.40;;;2.40;;
15693;SDS011;7947;48.834;9.132;2023-07-09T04:50:10;3.53;;;2.50;;
15693;SDS011;7947;48.834;9.132;2023-07-09T04:53:14;5.00;;;3.33;;
15693;SDS011;7947;48.834;9.132;2023-07-09T04:56:18;4.60;;;2.45;;
15693;SDS011;7947;48.834;9.132;2023-07-09T04:59:21;3.17;;;2.30;;
15693;SDS011;7947;48.834;9.132;2023-07-09T05:02:24;3.67;;;2.40;;
15693;SDS011;7947;48.834;9.132;2023-07-09T05:05:28;4.00;;;2.58;;
15693;SDS011;7947;48.834;9.132;2023-07-09T05:08:31;3.30;;;2.33;;
15693;SDS011;7947;48.834;9.132;2023-07-09T05:11:35;4.35;;;2.67;;
15693;SDS011;7947;48.834;9.132;2023-07-09T05:14:38;4.63;;;2.80;;
15693;SDS011;7947;48.834;9.132;2023-07-09T05:17:41;3.25;;;2.42;;
15693;SDS011;7947;48.834;9.132;2023-07-09T05:20:46;5.45;;;2.95;;
15693;SDS011;7947;48.834;9.132;2023-07-09T05:23:49;5.65;;;2.65;;
15693;SDS011;7947;48.834;9.132;2023-07-09T05:26:53;7.03;;;2.95;;
15693;SDS011;7947;48.834;9.132;2023-07-09T05:29:57;3.80;;;2.65;;
15693;SDS011;7947;48.834;9.132;2023-07-09T05:33:01;4.40;;;3.15;;
15693;SDS011;7947;48.834;9.132;2023-07-09T05:36:04;4.90;;;2.70;;
15693;SDS011;7947;48.834;9.132;2023-07-09T05:39:08;6.85;;;2.97;;
15693;SDS011;7947;48.834;9.132;2023-07-09T05:42:12;4.65;;;2.67;;
15693;SDS011;7947;48.834;9.132;2023-07-09T05:45:15;2.85;;;2.30;;
15693;SDS011;7947;48.834;9.132;2023-07-09T05:48:18;3.67;;;2.92;;
15693;SDS011;7947;48.834;9.132;2023-07-09T05:51:21;4.57;;;2.13;;
15693;SDS011;7947;48.834;9.132;2023-07-09T05:54:25;4.78;;;2.60;;
15693;SDS011;7947;48.834;9.132;2023-07-09T05:57:29;6.20;;;2.97;;
15693;SDS011;7947;48.834;9.132;2023-07-09T06:00:32;4.45;;;2.72;;
15693;SDS011;7947;48.834;9.132;2023-07-09T06:03:36;3.25;;;2.50;;
15693;SDS011;7947;48.834;9.132;2023-07-09T06:06:39;3.33;;;2.30;;
15693;SDS011;7947;48.834;9.132;2023-07-09T06:09:43;4.07;;;2.83;;
15693;SDS011;7947;48.834;9.132;2023-07-09T06:12:48;3.63;;;2.95;;
15693;SDS011;7947;48.834;9.132;2023-07-09T06:15:51;3.58;;;2.70;;
15693;SDS011;7947;48.834;9.132;2023-07-09T06:18:55;4.45;;;2.47;;
15693;SDS011;7947;48.834;9.132;2023-07-09T06:21:58;2.60;;;1.80;;
15693;SDS011;7947;48.834;9.132;2023-07-09T06:25:01;4.32;;;2.53;;
15693;SDS011;7947;48.834;9.132;2023-07-09T06:28:05;4.90;;;2.47;;
15693;SDS011;7947;48.834;9.132;2023-07-09T06:31:08;3.50;;;2.40;;
15693;SDS011;7947;48.834;9.132;2023-07-09T06:34:11;3.92;;;2.67;;
15693;SDS011;7947;48.834;9.132;2023-07-09T06:37:14;3.17;;;2.70;;
15693;SDS011;7947;48.834;9.132;2023-07-09T06:40:17;4.05;;;2.50;;
15693;SDS011;7947;48.834;9.132;2023-07-09T06:43:22;4.70;;;2.97;;
15693;SDS011;7947;48.834;9.132;2023-07-09T06:46:25;4.78;;;2.88;;
15693;SDS011;7947;48.834;9.132;2023-07-09T06:49:28;4.57;;;2.97;;
15693;SDS011;7947;48.834;9.132;2023-07-09T06:52:31;3.75;;;2.42;;
15693;SDS011;7947;48.834;9.132;2023-07-09T06:55:34;5.03;;;2.50;;
15693;SDS011;7947;48.834;9.132;2023-07-09T06:58:38;3.47;;;2.22;;
15693;SDS011;7947;48.834;9.132;2023-07-09T07:01:41;2.70;;;2.30;;
15693;SDS011;7947;48.834;9.132;2023-07-09T07:04:44;3.75;;;2.92;;
15693;SDS011;7947;48.834;9.132;2023-07-09T07:07:47;5.03;;;3.00;;
15693;SDS011;7947;48.834;9.132;2023-07-09T07:10:50;3.20;;;2.55;;
15693;SDS011;7947;48.834;9.132;2023-07-09T07:14:04;4.85;;;3.05;;
15693;SDS011;7947;48.834;9.132;2023-07-09T07:17:07;3.35;;;2.50;;
15693;SDS011;7947;48.834;9.132;2023-07-09T07:20:10;3.78;;;2.47;;
15693;SDS011;7947;48.834;9.132;2023-07-09T07:23:14;4.03;;;2.50;;
15693;SDS011;7947;48.834;9.132;2023-07-09T07:26:17;3.28;;;2.03;;
15693;SDS011;7947;48.834;9.132;2023-07-09T07:29:22;3.75;;;2.33;;
15693;SDS011;7947;48.834;9.132;2023-07-09T07:32:24;5.03;;;3.00;;
15693;SDS011;7947;48.834;9.132;2023-07-09T07:35:27;3.42;;;2.28;;
15693;SDS011;7947;48.834;9.132;2023-07-09T07:38:30;4.47;;;2.70;;
15693;SDS011;7947;48.834;9.132;2023-07-09T07:41:33;3.13;;;2.67;;
15693;SDS011;7947;48.834;9.132;2023-07-09T07:44:37;3.40;;;2.50;;
15693;SDS011;7947;48.834;9.132;2023-07-09T07:47:41;4.00;;;2.20;;
15693;SDS011;7947;48.834;9.132;2023-07-09T07:50:43;3.85;;;2.42;;
15693;SDS011;7947;48.834;9.132;2023-07-09T07:53:49;3.58;;;2.42;;
15693;SDS011;7947;48.834;9.132;2023-07-09T07:56:52;3.97;;;2.50;;
15693;SDS011;7947;48.834;9.132;2023-07-09T07:59:57;3.83;;;2.60;;
15693;SDS011;7947;48.834;9.132;2023-07-09T08:03:03;3.17;;;2.30;;
15693;SDS011;7947;48.834;9.132;2023-07-09T08:06:06;3.75;;;2.70;;
15693;SDS011;7947;48.834;9.132;2023-07-09T08:09:09;3.83;;;2.78;;
15693;SDS011;7947;48.834;9.132;2023-07-09T08:12:12;3.55;;;2.53;;
15693;SDS011;7947;48.834;9.132;2023-07-09T08:15:18;2.92;;;2.30;;
15693;SDS011;7947;48.834;9.132;2023-07-09T08:18:21;4.03;;;2.70;;
15693;SDS011;7947;48.834;9.132;2023-07-09T08:21:24;3.63;;;3.00;;
15693;SDS011;7947;48.834;9.132;2023-07-09T08:24:27;3.90;;;2.70;;
15693;SDS011;7947;48.834;9.132;2023-07-09T08:27:30;3.40;;;2.60;;
15693;SDS011;7947;48.834;9.132;2023-07-09T08:30:35;4.30;;;2.88;;
15693;SDS011;7947;48.834;9.132;2023-07-09T08:33:38;5.90;;;2.58;;
15693;SDS011;7947;48.834;9.132;2023-07-09T08:36:41;4.22;;;2.25;;
15693;SDS011;7947;48.834;9.132;2023-07-09T08:39:45;2.80;;;2.30;;
15693;SDS011;7947;48.834;9.132;2023-07-09T08:42:49;3.25;;;2.20;;
15693;SDS011;7947;48.834;9.132;2023-07-09T08:46:07;3.63;;;2.55;;
15693;SDS011;7947;48.834;9.132;2023-07-09T08:49:18;4.30;;;2.78;;
15693;SDS011;7947;48.834;9.132;2023-07-09T08:52:25;2.60;;;2.38;;
15693;SDS011;7947;48.834;9.132;2023-07-09T08:55:33;2.80;;;2.30;;
15693;SDS011;7947;48.834;9.132;2023-07-09T08:58:41;3.83;;;2.75;;
15693;SDS011;7947;48.834;9.132;2023-07-09T09:01:49;6.10;;;2.85;;
15693;SDS011;7947;48.834;9.132;2023-07-09T09:04:56;3.80;;;2.35;;
15693;SDS011;7947;48.834;9.132;2023-07-09T09:08:01;2.80;;;2.53;;
15693;SDS011;7947;48.834;9.132;2023-07-09T09:11:11;3.47;;;2.83;;
15693;SDS011;7947;48.834;9.132;2023-07-09T09:14:23;4.05;;;2.28;;
15693;SDS011;7947;48.834;9.132;2023-07-09T09:17:32;5.03;;;3.10;;
15693;SDS011;7947;48.834;9.132;2023-07-09T09:20:37;4.93;;;2.55;;
15693;SDS011;7947;48.834;9.132;2023-07-09T09:23:45;3.35;;;2.40;;
15693;SDS011;7947;48.834;9.132;2023-07-09T09:26:53;4.20;;;2.60;;
15693;SDS011;7947;48.834;9.132;2023-07-09T09:30:00;3.40;;;3.10;;
15693;SDS011;7947;48.834;9.132;2023-07-09T09:33:07;2.55;;;2.35;;
15693;SDS011;7947;48.834;9.132;2023-07-09T09:36:15;2.40;;;2.20;;
15693;SDS011;7947;48.834;9.132;2023-07-09T09:39:19;5.55;;;2.50;;
15693;SDS011;7947;48.834;9.132;2023-07-09T09:42:23;2.97;;;2.58;;
15693;SDS011;7947;48.834;9.132;2023-07-09T09:45:27;3.08;;;2.50;;
15693;SDS011;7947;48.834;9.132;2023-07-09T09:48:36;2.85;;;2.33;;
15693;SDS011;7947;48.834;9.132;2023-07-09T09:51:40;5.72;;;2.47;;
15693;SDS011;7947;48.834;9.132;2023-07-09T09:54:48;3.95;;;2.38;;
15693;SDS011;7947;48.834;9.132;2023-07-09T09:57:54;3.45;;;2.47;;
15693;SDS011;7947;48.834;9.132;2023-07-09T10:00:58;3.60;;;2.42;;
15693;SDS011;7947;48.834;9.132;2023-07-09T10:04:05;5.20;;;2.67;;
15693;SDS011;7947;48.834;9.132;2023-07-09T10:07:08;4.20;;;2.33;;
15693;SDS011;7947;48.834;9.132;2023-07-09T10:10:18;4.40;;;2.35;;
15693;SDS011;7947;48.834;9.132;2023-07-09T10:13:27;4.28;;;2.42;;
15693;SDS011;7947;48.834;9.132;2023-07-09T10:16:34;3.28;;;2.42;;
15693;SDS011;7947;48.834;9.132;2023-07-09T10:19:47;3.70;;;2.60;;
15693;SDS011;7947;48.834;9.132;2023-07-09T10:22:57;3.45;;;2.28;;
15693;SDS011;7947;48.834;9.132;2023-07-09T10:26:09;3.42;;;2.30;;
15693;SDS011;7947;48.834;9.132;2023-07-09T10:29:22;3.55;;;2.72;;
15693;SDS011;7947;48.834;9.132;2023-07-09T10:32:39;3.63;;;2.30;;
15693;SDS011;7947;48.834;9.132;2023-07-09T10:35:53;3.13;;;2.22;;
15693;SDS011;7947;48.834;9.132;2023-07-09T10:39:05;3.45;;;2.10;;
15693;SDS011;7947;48.834;9.132;2023-07-09T10:42:13;4.90;;;2.47;;
15693;SDS011;7947;48.834;9.132;2023-07-09T10:45:22;3.78;;;2.10;;
15693;SDS011;7947;48.834;9.132;2023-07-09T10:48:31;3.65;;;2.17;;
15693;SDS011;7947;48.834;9.132;2023-07-09T10:51:40;3.35;;;2.10;;
15693;SDS011;7947;48.834;9.132;2023-07-09T10:54:54;4.15;;;2.30;;
15693;SDS011;7947;48.834;9.132;2023-07-09T10:58:02;2.28;;;2.08;;
15693;SDS011;7947;48.834;9.132;2023-07-09T11:01:15;2.97;;;2.03;;
15693;SDS011;7947;48.834;9.132;2023-07-09T11:04:25;3.33;;;2.20;;
15693;SDS011;7947;48.834;9.132;2023-07-09T11:07:35;2.70;;;2.10;;
15693;SDS011;7947;48.834;9.132;2023-07-09T11:10:46;3.70;;;2.10;;
15693;SDS011;7947;48.834;9.132;2023-07-09T11:13:56;4.18;;;2.05;;
15693;SDS011;7947;48.834;9.132;2023-07-09T11:17:03;2.78;;;1.92;;
15693;SDS011;7947;48.834;9.132;2023-07-09T11:20:17;2.47;;;1.75;;
15693;SDS011;7947;48.834;9.132;2023-07-09T11:23:39;3.30;;;2.08;;
15693;SDS011;7947;48.834;9.132;2023-07-09T11:26:47;3.10;;;2.20;;
15693;SDS011;7947;48.834;9.132;2023-07-09T11:29:58;2.95;;;2.03;;
15693;SDS011;7947;48.834;9.132;2023-07-09T11:33:03;3.35;;;1.90;;
15693;SDS011;7947;48.834;9.132;2023-07-09T11:36:25;3.45;;;2.33;;
15693;SDS011;7947;48.834;9.132;2023-07-09T11:39:41;4.55;;;1.95;;
15693;SDS011;7947;48.834;9.132;2023-07-09T11:42:47;3.22;;;2.17;;
15693;SDS011;7947;48.834;9.132;2023-07-09T11:45:53;4.32;;;2.15;;
15693;SDS011;7947;48.834;9.132;2023-07-09T11:48:59;5.90;;;2.50;;
15693;SDS011;7947;48.834;9.132;2023-07-09T11:52:04;4.45;;;3.50;;
15693;SDS011;7947;48.834;9.132;2023-07-09T11:55:20;4.75;;;2.05;;
15693;SDS011;7947;48.834;9.132;2023-07-09T11:58:28;7.80;;;2.80;;
15693;SDS011;7947;48.834;9.132;2023-07-09T12:01:33;3.92;;;2.40;;
15693;SDS011;7947;48.834;9.132;2023-07-09T12:04:41;5.50;;;2.50;;
15693;SDS011;7947;48.834;9.132;2023-07-09T12:07:44;2.95;;;2.15;;
15693;SDS011;7947;48.834;9.132;2023-07-09T12:10:48;4.72;;;2.72;;
15693;SDS011;7947;48.834;9.132;2023-07-09T12:13:51;3.75;;;2.40;;
15693;SDS011;7947;48.834;9.132;2023-07-09T12:16:55;3.83;;;2.50;;
15693;SDS011;7947;48.834;9.132;2023-07-09T12:19:58;4.07;;;2.45;;
15693;SDS011;7947;48.834;9.132;2023-07-09T12:23:09;5.68;;;2.30;;
15693;SDS011;7947;48.834;9.132;2023-07-09T12:26:15;5.15;;;2.20;;
15693;SDS011;7947;48.834;9.132;2023-07-09T12:29:19;5.55;;;2.67;;
15693;SDS011;7947;48.834;9.132;2023-07-09T12:32:22;4.20;;;2.30;;
15693;SDS011;7947;48.834;9.132;2023-07-09T12:35:28;5.05;;;3.17;;
15693;SDS011;7947;48.834;9.132;2023-07-09T12:38:41;3.25;;;2.40;;
15693;SDS011;7947;48.834;9.132;2023-07-09T12:41:47;4.20;;;2.08;;
15693;SDS011;7947;48.834;9.132;2023-07-09T12:44:50;3.42;;;2.30;;
15693;SDS011;7947;48.834;9.132;2023-07-09T12:47:53;4.03;;;2.20;;
15693;SDS011;7947;48.834;9.132;2023-07-09T12:50:58;3.72;;;2.65;;
15693;SDS011;7947;48.834;9.132;2023-07-09T12:54:03;3.40;;;2.55;;
15693;SDS011;7947;48.834;9.132;2023-07-09T12:57:15;3.00;;;2.25;;
15693;SDS011;7947;48.834;9.132;2023-07-09T13:00:19;4.13;;;2.47;;
15693;SDS011;7947;48.834;9.132;2023-07-09T13:03:24;4.22;;;2.30;;
15693;SDS011;7947;48.834;9.132;2023-07-09T13:06:33;4.32;;;2.17;;
15693;SDS011;7947;48.834;9.132;2023-07-09T13:09:47;3.35;;;2.17;;
15693;SDS011;7947;48.834;9.132;2023-07-09T13:12:53;5.22;;;2.00;;
15693;SDS011;7947;48.834;9.132;2023-07-09T13:16:02;3.63;;;2.30;;
15693;SDS011;7947;48.834;9.132;2023-07-09T13:19:05;5.07;;;2.30;;
15693;SDS011;7947;48.834;9.132;2023-07-09T13:22:10;3.05;;;2.15;;
15693;SDS011;7947;48.834;9.132;2023-07-09T13:25:16;5.75;;;3.00;;
15693;SDS011;7947;48.834;9.132;2023-07-09T13:28:35;4.53;;;2.25;;
15693;SDS011;7947;48.834;9.132;2023-07-09T13:31:38;2.75;;;2.03;;
15693;SDS011;7947;48.834;9.132;2023-07-09T13:34:41;4.03;;;2.13;;
15693;SDS011;7947;48.834;9.132;2023-07-09T13:37:44;3.55;;;2.30;;
15693;SDS011;7947;48.834;9.132;2023-07-09T13:40:48;2.70;;;2.10;;
15693;SDS011;7947;48.834;9.132;2023-07-09T13:43:54;3.45;;;2.22;;
15693;SDS011;7947;48.834;9.132;2023-07-09T13:46:58;3.25;;;2.53;;
15693;SDS011;7947;48.834;9.132;2023-07-09T13:50:01;4.00;;;2.60;;
15693;SDS011;7947;48.834;9.132;2023-07-09T13:53:05;5.70;;;2.95;;
15693;SDS011;7947;48.834;9.132;2023-07-09T13:56:18;3.67;;;2.05;;
15693;SDS011;7947;48.834;9.132;2023-07-09T13:59:24;4.00;;;2.60;;
15693;SDS011;7947;48.834;9.132;2023-07-09T14:02:28;5.10;;;2.63;;
15693;SDS011;7947;48.834;9.132;2023-07-09T14:05:34;4.75;;;2.83;;
15693;SDS011;7947;48.834;9.132;2023-07-09T14:08:36;3.95;;;2.33;;
15693;SDS011;7947;48.834;9.132;2023-07-09T14:11:43;4.18;;;2.17;;
15693;SDS011;7947;48.834;9.132;2023-07-09T14:14:50;3.88;;;2.40;;
15693;SDS011;7947;48.834;9.132;2023-07-09T14:17:54;2.22;;;2.00;;
15693;SDS011;7947;48.834;9.132;2023-07-09T14:20:57;2.95;;;2.20;;
15693;SDS011;7947;48.834;9.132;2023-07-09T14:24:01;4.75;;;2.60;;
15693;SDS011;7947;48.834;9.132;2023-07-09T14:27:09;4.38;;;2.53;;
15693;SDS011;7947;48.834;9.132;2023-07-09T14:30:18;2.83;;;2.08;;
15693;SDS011;7947;48.834;9.132;2023-07-09T14:33:22;3.40;;;2.17;;
15693;SDS011;7947;48.834;9.132;2023-07-09T14:36:25;4.40;;;2.25;;
15693;SDS011;7947;48.834;9.132;2023-07-09T14:39:28;3.40;;;2.15;;
15693;SDS011;7947;48.834;9.132;2023-07-09T14:42:31;3.45;;;2.17;;
15693;SDS011;7947;48.834;9.132;2023-07-09T14:45:35;3.92;;;2.03;;
15693;SDS011;7947;48.834;9.132;2023-07-09T14:48:39;3.05;;;2.00;;
15693;SDS011;7947;48.834;9.132;2023-07-09T14:51:42;3.92;;;2.20;;
15693;SDS011;7947;48.834;9.132;2023-07-09T14:54:45;2.63;;;2.00;;
15693;SDS011;7947;48.834;9.132;2023-07-09T14:57:49;3.40;;;2.25;;
15693;SDS011;7947;48.834;9.132;2023-07-09T15:00:53;3.45;;;1.95;;
15693;SDS011;7947;48.834;9.132;2023-07-09T15:03:56;4.60;;;2.40;;
15693;SDS011;7947;48.834;9.132;2023-07-09T15:06:59;3.97;;;2.17;;
15693;SDS011;7947;48.834;9.132;2023-07-09T15:10:02;4.05;;;2.10;;
15693;SDS011;7947;48.834;9.132;2023-07-09T15:13:11;4.97;;;2.72;;
15693;SDS011;7947;48.834;9.132;2023-07-09T15:16:20;4.50;;;2.10;;
15693;SDS011;7947;48.834;9.132;2023-07-09T15:19:23;2.53;;;1.77;;
15693;SDS011;7947;48.834;9.132;2023-07-09T15:22:28;3.70;;;2.05;;
15693;SDS011;7947;48.834;9.132;2023-07-09T15:25:34;3.08;;;2.00;;
15693;SDS011;7947;48.834;9.132;2023-07-09T15:28:37;3.38;;;2.00;;
15693;SDS011;7947;48.834;9.132;2023-07-09T15:31:41;3.70;;;2.28;;
15693;SDS011;7947;48.834;9.132;2023-07-09T15:34:44;3.08;;;2.10;;
15693;SDS011;7947;48.834;9.132;2023-07-09T15:37:47;3.55;;;2.40;;
15693;SDS011;7947;48.834;9.132;2023-07-09T15:40:50;3.00;;;2.20;;
15693;SDS011;7947;48.834;9.132;2023-07-09T15:43:53;3.67;;;2.60;;
15693;SDS011;7947;48.834;9.132;2023-07-09T15:46:58;3.35;;;2.17;;
15693;SDS011;7947;48.834;9.132;2023-07-09T15:50:01;4.28;;;2.53;;
15693;SDS011;7947;48.834;9.132;2023-07-09T15:53:06;3.20;;;2.25;;
15693;SDS011;7947;48.834;9.132;2023-07-09T15:56:15;2.83;;;1.85;;
15693;SDS011;7947;48.834;9.132;2023-07-09T15:59:27;2.38;;;1.90;;
15693;SDS011;7947;48.834;9.132;2023-07-09T16:02:32;3.95;;;2.30;;
15693;SDS011;7947;48.834;9.132;2023-07-09T16:05:36;3.50;;;1.92;;
15693;SDS011;7947;48.834;9.132;2023-07-09T16:08:39;3.70;;;1.98;;
15693;SDS011;7947;48.834;9.132;2023-07-09T16:11:43;3.17;;;2.28;;
15693;SDS011;7947;48.834;9.132;2023-07-09T16:14:48;3.28;;;2.03;;
15693;SDS011;7947;48.834;9.132;2023-07-09T16:17:54;2.92;;;2.08;;
15693;SDS011;7947;48.834;9.132;2023-07-09T16:20:57;2.25;;;1.65;;
15693;SDS011;7947;48.834;9.132;2023-07-09T16:24:01;2.13;;;1.90;;
15693;SDS011;7947;48.834;9.132;2023-07-09T16:27:15;3.90;;;1.95;;
15693;SDS011;7947;48.834;9.132;2023-07-09T16:30:20;3.28;;;1.85;;
15693;SDS011;7947;48.834;9.132;2023-07-09T16:33:26;3.40;;;1.92;;
15693;SDS011;7947;48.834;9.132;2023-07-09T16:36:29;4.15;;;2.10;;
15693;SDS011;7947;48.834;9.132;2023-07-09T16:39:34;3.35;;;2.20;;
15693;SDS011;7947;48.834;9.132;2023-07-09T16:42:41;4.07;;;2.17;;
15693;SDS011;7947;48.834;9.132;2023-07-09T16:45:44;2.95;;;1.92;;
15693;SDS011;7947;48.834;9.132;2023-07-09T16:48:49;6.13;;;2.95;;
15693;SDS011;7947;48.834;9.132;2023-07-09T16:51:52;2.72;;;2.22;;
15693;SDS011;7947;48.834;9.132;2023-07-09T16:54:56;3.90;;;2.10;;
15693;SDS011;7947;48.834;9.132;2023-07-09T16:57:59;3.10;;;2.00;;
15693;SDS011;7947;48.834;9.132;2023-07-09T17:01:02;3.67;;;2.15;;
15693;SDS011;7947;48.834;9.132;2023-07-09T17:04:12;6.32;;;2.20;;
15693;SDS011;7947;48.834;9.132;2023-07-09T17:07:22;2.38;;;1.63;;
15693;SDS011;7947;48.834;9.132;2023-07-09T17:10:25;4.75;;;2.40;;
15693;SDS011;7947;48.834;9.132;2023-07-09T17:13:28;3.22;;;2.15;;
15693;SDS011;7947;48.834;9.132;2023-07-09T17:16:31;3.67;;;1.77;;
15693;SDS011;7947;48.834;9.132;2023-07-09T17:19:37;4.50;;;1.95;;
15693;SDS011;7947;48.834;9.132;2023-07-09T17:22:40;3.42;;;2.20;;
15693;SDS011;7947;48.834;9.132;2023-07-09T17:25:43;2.35;;;1.83;;
15693;SDS011;7947;48.834;9.132;2023-07-09T17:28:46;3.70;;;2.33;;
15693;SDS011;7947;48.834;9.132;2023-07-09T17:31:50;3.35;;;2.08;;
15693;SDS011;7947;48.834;9.132;2023-07-09T17:34:55;3.97;;;2.00;;
15693;SDS011;7947;48.834;9.132;2023-07-09T17:37:57;4.18;;;1.98;;
15693;SDS011;7947;48.834;9.132;2023-07-09T17:41:01;4.10;;;2.15;;
15693;SDS011;7947;48.834;9.132;2023-07-09T17:44:04;3.53;;;2.53;;
15693;SDS011;7947;48.834;9.132;2023-07-09T17:47:15;3.05;;;2.13;;
15693;SDS011;7947;48.834;9.132;2023-07-09T17:50:21;2.80;;;2.00;;
15693;SDS011;7947;48.834;9.132;2023-07-09T17:53:27;3.05;;;2.17;;
15693;SDS011;7947;48.834;9.132;2023-07-09T17:56:31;3.47;;;2.03;;
15693;SDS011;7947;48.834;9.132;2023-07-09T17:59:36;2.90;;;2.00;;
15693;SDS011;7947;48.834;9.132;2023-07-09T18:02:39;3.50;;;2.38;;
15693;SDS011;7947;48.834;9.132;2023-07-09T18:05:44;2.80;;;1.95;;
15693;SDS011;7947;48.834;9.132;2023-07-09T18:08:47;2.50;;;1.98;;
15693;SDS011;7947;48.834;9.132;2023-07-09T18:11:50;2.72;;;2.03;;
15693;SDS011;7947;48.834;9.132;2023-07-09T18:14:56;5.20;;;2.40;;
15693;SDS011;7947;48.834;9.132;2023-07-09T18:18:00;4.47;;;2.45;;
15693;SDS011;7947;48.834;9.132;2023-07-09T18:21:07;4.03;;;2.17;;
15693;SDS011;7947;48.834;9.132;2023-07-09T18:24:14;3.40;;;2.10;;
15693;SDS011;7947;48.834;9.132;2023-07-09T18:27:18;2.50;;;2.30;;
15693;SDS011;7947;48.834;9.132;2023-07-09T18:30:27;3.17;;;1.98;;
15693;SDS011;7947;48.834;9.132;2023-07-09T18:33:32;3.47;;;2.80;;
15693;SDS011;7947;48.834;9.132;2023-07-09T18:36:36;3.13;;;2.70;;
15693;SDS011;7947;48.834;9.132;2023-07-09T18:39:40;4.22;;;2.38;;
15693;SDS011;7947;48.834;9.132;2023-07-09T18:42:43;2.75;;;1.85;;
15693;SDS011;7947;48.834;9.132;2023-07-09T18:45:46;3.35;;;2.33;;
15693;SDS011;7947;48.834;9.132;2023-07-09T18:48:50;3.25;;;2.33;;
15693;SDS011;7947;48.834;9.132;2023-07-09T18:51:55;2.85;;;2.30;;